Time;durP1;ratioP1;P1;durP2;ratioP2;P2;SDS_P1;SDS_P2;PMS_P1;PMS_P2;Temp;Humidity;BMP_temperature;BMP_pressure;BME280_temperature;BME280_humidity;BME280_pressure;Samples;Min_cycle;Max_cycle;Signal;HPM_P1;HPM_P2
2022/01/02 00:00:14;;;;;;;9.68;6.03;;;11.30;99.90;;;;;;5023902;28;20492;-82
2022/01/02 00:02:41;;;;;;;12.65;6.40;;;11.30;99.90;;;;;;5032079;28;20091;-81
2022/01/02 00:05:15;;;;;;;10.20;6.43;;;11.20;99.90;;;;;;5031767;28;20071;-81
2022/01/02 00:07:56;;;;;;;9.68;6.15;;;11.20;99.90;;;;;;5032437;28;20125;-81
2022/01/02 00:10:22;;;;;;;12.73;6.07;;;11.30;99.90;;;;;;5030419;28;20044;-81
2022/01/02 00:12:56;;;;;;;10.60;5.90;;;11.30;99.90;;;;;;5031616;28;20447;-82
2022/01/02 00:15:22;;;;;;;9.50;5.95;;;11.30;99.90;;;;;;5014914;28;20068;-82
2022/01/02 00:17:54;;;;;;;10.50;6.25;;;11.30;99.90;;;;;;5031842;28;20068;-82
2022/01/02 00:20:22;;;;;;;11.88;6.22;;;11.30;99.90;;;;;;5032096;28;20407;-82
2022/01/02 00:22:50;;;;;;;11.40;6.60;;;11.30;99.90;;;;;;5031786;28;20037;-82
2022/01/02 00:25:31;;;;;;;8.35;5.95;;;11.30;99.90;;;;;;5015395;28;20045;-82
2022/01/02 00:27:59;;;;;;;16.17;7.13;;;11.30;99.90;;;;;;5031620;28;20133;-82
2022/01/02 00:30:25;;;;;;;11.60;6.85;;;11.30;99.90;;;;;;5031662;28;20029;-82
2022/01/02 00:32:51;;;;;;;11.60;6.70;;;11.30;99.90;;;;;;5014347;28;20670;-82
2022/01/02 00:35:17;;;;;;;12.15;6.35;;;11.30;99.90;;;;;;5014588;28;20049;-82
2022/01/02 00:37:42;;;;;;;11.00;6.18;;;11.30;99.90;;;;;;5031507;28;20426;-82
2022/01/02 00:40:09;;;;;;;11.50;6.65;;;11.30;99.90;;;;;;5031326;28;20041;-82
2022/01/02 00:42:38;;;;;;;12.55;6.88;;;11.20;99.90;;;;;;5031163;28;20116;-82
2022/01/02 00:45:20;;;;;;;11.20;6.50;;;11.20;99.90;;;;;;5030841;28;20049;-82
2022/01/02 00:48:04;;;;;;;12.23;6.53;;;11.20;99.90;;;;;;5031242;28;20124;-82
2022/01/02 00:50:32;;;;;;;;;;;11.20;99.90;;;;;;5015310;28;20055;-82
2022/01/02 00:52:59;;;;;;;10.40;6.03;;;11.20;99.90;;;;;;5031325;28;20323;-82
2022/01/02 00:55:25;;;;;;;12.43;7.00;;;11.20;99.90;;;;;;5031231;28;20132;-83
2022/01/02 00:58:00;;;;;;;15.50;7.60;;;11.20;99.90;;;;;;5030487;28;20091;-82
2022/01/02 01:00:27;;;;;;;13.77;6.97;;;11.20;99.90;;;;;;5031206;28;20464;-82
2022/01/02 01:02:55;;;;;;;11.45;6.75;;;11.20;99.90;;;;;;5014443;28;20135;-83
2022/01/02 01:05:31;;;;;;;14.75;6.85;;;11.10;99.90;;;;;;5030424;28;20038;-82
2022/01/02 01:08:02;;;;;;;11.63;7.13;;;11.20;99.90;;;;;;5030778;28;20052;-82
2022/01/02 01:10:31;;;;;;;13.05;6.90;;;11.10;99.90;;;;;;5030803;28;20050;-82
2022/01/02 01:13:00;;;;;;;12.48;7.88;;;11.10;99.90;;;;;;5030044;28;20052;-81
2022/01/02 01:15:28;;;;;;;15.10;7.53;;;11.20;99.90;;;;;;5029155;28;20446;-82
2022/01/02 01:17:56;;;;;;;14.60;7.38;;;11.10;99.90;;;;;;5030382;28;20041;-82
2022/01/02 01:20:26;;;;;;;13.65;7.68;;;11.10;99.90;;;;;;5030942;28;20455;-82
2022/01/02 01:22:51;;;;;;;14.90;7.85;;;11.10;99.90;;;;;;5029571;28;20037;-82
2022/01/02 01:25:18;;;;;;;13.23;7.40;;;11.20;99.90;;;;;;5030754;28;20063;-82
2022/01/02 01:27:46;;;;;;;15.43;8.25;;;11.20;99.90;;;;;;5013546;28;20033;-82
2022/01/02 01:30:13;;;;;;;11.45;7.15;;;11.10;99.90;;;;;;5030262;28;20058;-82
2022/01/02 01:32:39;;;;;;;18.48;7.85;;;11.10;99.90;;;;;;5030920;28;20044;-82
2022/01/02 01:35:06;;;;;;;14.30;7.68;;;11.20;99.90;;;;;;5030165;28;20037;-82
2022/01/02 01:37:32;;;;;;;15.52;8.23;;;11.10;99.90;;;;;;5030656;28;20037;-82
2022/01/02 01:39:58;;;;;;;12.57;7.75;;;11.20;99.90;;;;;;5030100;28;20364;-82
2022/01/02 01:42:44;;;;;;;15.27;7.97;;;11.10;99.90;;;;;;5030094;28;20040;-82
2022/01/02 01:47:48;;;;;;;16.15;8.73;;;11.10;99.90;;;;;;5030829;28;20046;-82
2022/01/02 01:50:14;;;;;;;13.73;8.35;;;11.10;99.90;;;;;;5029832;28;20128;-82
2022/01/02 01:52:40;;;;;;;18.23;8.52;;;11.10;99.90;;;;;;5030355;28;20034;-82
2022/01/02 01:55:06;;;;;;;15.75;8.38;;;11.10;99.90;;;;;;5013709;28;20033;-82
2022/01/02 01:57:32;;;;;;;15.52;8.90;;;11.10;99.90;;;;;;5030394;28;20660;-81
2022/01/02 01:59:59;;;;;;;13.52;8.15;;;11.10;99.90;;;;;;5030037;28;20037;-82
2022/01/02 02:02:25;;;;;;;15.30;8.55;;;11.10;99.90;;;;;;5033479;28;20034;-82
2022/01/02 02:04:51;;;;;;;14.38;8.50;;;11.10;99.90;;;;;;5033717;28;20048;-81
2022/01/02 02:07:17;;;;;;;14.68;9.02;;;11.10;99.90;;;;;;5034739;28;20511;-81
2022/01/02 02:10:01;;;;;;;16.38;9.13;;;11.00;99.90;;;;;;5033349;28;20652;-81
2022/01/02 02:12:27;;;;;;;19.15;9.48;;;11.00;99.90;;;;;;5033948;28;20591;-82
2022/01/02 02:14:52;;;;;;;16.88;9.43;;;11.00;99.90;;;;;;5033758;28;20069;-81
2022/01/02 02:17:18;;;;;;;16.58;9.65;;;11.00;99.90;;;;;;5034186;28;20124;-81
2022/01/02 02:19:45;;;;;;;17.70;10.27;;;11.00;99.90;;;;;;5034487;28;20540;-82
2022/01/02 02:22:12;;;;;;;16.63;10.23;;;11.00;99.90;;;;;;5017685;28;20037;-81
2022/01/02 02:24:39;;;;;;;20.85;10.13;;;10.90;99.90;;;;;;5033736;28;20053;-81
2022/01/02 02:27:04;;;;;;;20.85;10.32;;;10.90;99.90;;;;;;5034072;28;20049;-81
2022/01/02 02:29:30;;;;;;;17.58;10.65;;;10.90;99.90;;;;;;5033070;28;20041;-81
2022/01/02 02:31:56;;;;;;;17.85;10.23;;;10.90;99.90;;;;;;5034319;28;20149;-81
2022/01/02 02:34:21;;;;;;;18.65;10.23;;;10.90;99.90;;;;;;5033682;28;20037;-80
2022/01/02 02:36:47;;;;;;;23.92;11.10;;;10.90;99.90;;;;;;5034038;28;20069;-81
2022/01/02 02:39:12;;;;;;;20.42;10.20;;;10.90;99.90;;;;;;5034192;28;20048;-81
2022/01/02 02:41:41;;;;;;;20.90;11.02;;;10.90;99.90;;;;;;5033593;28;20573;-81
2022/01/02 02:44:20;;;;;;;20.45;10.65;;;10.90;99.90;;;;;;5033601;28;20041;-81
2022/01/02 02:49:30;;;;;;;18.30;9.75;;;10.90;99.90;;;;;;5033450;28;20099;-82
2022/01/02 02:52:08;;;;;;;22.88;10.80;;;10.90;99.90;;;;;;5033561;28;20045;-81
2022/01/02 02:54:35;;;;;;;21.38;10.43;;;10.90;99.90;;;;;;5033481;28;20100;-81
2022/01/02 02:57:04;;;;;;;24.45;11.15;;;10.80;99.90;;;;;;5032830;28;20199;-81
2022/01/02 02:59:33;;;;;;;19.08;10.38;;;10.90;99.90;;;;;;5032789;28;20041;-81
2022/01/02 03:01:59;;;;;;;18.95;10.48;;;10.80;99.90;;;;;;5031960;28;20104;-81
2022/01/02 03:04:25;;;;;;;18.65;10.27;;;10.80;99.90;;;;;;5032808;28;20043;-81
2022/01/02 03:06:52;;;;;;;21.38;10.73;;;10.80;99.90;;;;;;5016901;28;20430;-81
2022/01/02 03:12:15;;;;;;;17.95;10.48;;;10.80;99.90;;;;;;5021095;28;20063;-81
2022/01/02 03:14:41;;;;;;;21.40;11.50;;;10.80;99.90;;;;;;5032469;28;20041;-81
2022/01/02 03:17:07;;;;;;;21.75;11.27;;;10.80;99.90;;;;;;5014036;28;20103;-81
2022/01/02 03:19:33;;;;;;;22.02;10.70;;;10.80;99.90;;;;;;5032463;28;20049;-81
2022/01/02 03:21:59;;;;;;;18.80;11.40;;;10.80;99.90;;;;;;5033220;28;20452;-82
2022/01/02 03:24:25;;;;;;;21.40;11.30;;;10.80;99.90;;;;;;5032242;28;20080;-81
2022/01/02 03:26:51;;;;;;;21.08;11.18;;;10.80;99.90;;;;;;5016193;28;20415;-81
2022/01/02 03:29:16;;;;;;;21.42;10.90;;;10.80;99.90;;;;;;5016263;28;20124;-81
2022/01/02 03:31:42;;;;;;;20.75;11.20;;;10.70;99.90;;;;;;5032767;28;20082;-81
2022/01/02 03:34:07;;;;;;;21.77;11.43;;;10.80;99.90;;;;;;5032953;28;20045;-82
2022/01/02 03:36:33;;;;;;;23.80;11.50;;;10.80;99.90;;;;;;5033171;28;20057;-82
2022/01/02 03:38:58;;;;;;;24.23;11.48;;;10.80;99.90;;;;;;5033145;28;20037;-82
2022/01/02 03:41:24;;;;;;;23.92;10.55;;;10.80;99.90;;;;;;5032042;28;20048;-83
2022/01/02 03:43:49;;;;;;;19.15;9.93;;;10.80;99.90;;;;;;5032221;28;20042;-81
2022/01/02 03:46:15;;;;;;;23.40;10.30;;;10.80;99.90;;;;;;5015850;28;20083;-82
2022/01/02 03:48:41;;;;;;;22.90;10.25;;;10.80;99.90;;;;;;5016453;28;20092;-81
2022/01/02 03:51:06;;;;;;;17.40;10.55;;;10.90;99.90;;;;;;5032431;28;20080;-82
2022/01/02 03:53:32;;;;;;;18.67;11.32;;;10.90;99.90;;;;;;5032565;28;20111;-82
2022/01/02 03:55:58;;;;;;;25.13;11.13;;;10.90;99.90;;;;;;5031896;28;20129;-82
2022/01/02 03:58:23;;;;;;;17.30;10.13;;;10.90;99.90;;;;;;5032526;28;20581;-82
2022/01/02 04:00:49;;;;;;;21.95;10.77;;;10.90;99.90;;;;;;5015246;28;20458;-82
2022/01/02 04:03:15;;;;;;;21.95;10.45;;;10.90;99.90;;;;;;5032540;28;20080;-83
2022/01/02 04:05:42;;;;;;;20.58;10.52;;;10.90;99.90;;;;;;5031960;28;20057;-82
2022/01/02 04:08:08;;;;;;;22.80;10.68;;;10.90;99.90;;;;;;5032620;28;20037;-82
2022/01/02 04:10:33;;;;;;;25.00;10.60;;;11.00;99.90;;;;;;5031079;28;20128;-82
2022/01/02 04:12:59;;;;;;;21.02;10.02;;;11.00;99.90;;;;;;5031909;28;20515;-81
2022/01/02 04:15:25;;;;;;;22.73;10.52;;;11.00;99.90;;;;;;5031557;28;20038;-81
2022/01/02 04:17:50;;;;;;;19.77;10.52;;;11.00;99.90;;;;;;5030749;28;20052;-82
2022/01/02 04:20:16;;;;;;;23.38;9.60;;;11.00;99.90;;;;;;5032204;28;20438;-81
2022/01/02 04:22:43;;;;;;;21.52;9.55;;;11.00;99.90;;;;;;5031965;28;20422;-82
2022/01/02 04:25:09;;;;;;;17.13;9.45;;;11.10;99.90;;;;;;5030903;28;20041;-82
2022/01/02 04:27:35;;;;;;;18.33;8.95;;;11.10;99.90;;;;;;5031942;28;20048;-83
2022/01/02 04:30:03;;;;;;;18.98;8.63;;;11.10;99.90;;;;;;5015084;28;20029;-81
2022/01/02 04:32:29;;;;;;;23.50;9.40;;;11.10;99.90;;;;;;5031704;28;20048;-81
2022/01/02 04:34:54;;;;;;;18.20;8.85;;;11.10;99.90;;;;;;5030441;28;20411;-82
2022/01/02 04:37:20;;;;;;;21.35;8.73;;;11.10;99.90;;;;;;5031603;28;20041;-83
2022/01/02 04:39:46;;;;;;;22.95;9.75;;;11.10;99.90;;;;;;5014956;28;20129;-82
2022/01/02 04:42:11;;;;;;;16.42;8.23;;;11.10;99.90;;;;;;5031093;28;20060;-82
2022/01/02 04:44:37;;;;;;;18.98;9.00;;;11.10;99.90;;;;;;5030964;28;20384;-82
2022/01/02 04:47:03;;;;;;;24.65;9.75;;;11.10;99.90;;;;;;5030916;28;20073;-82
2022/01/02 04:49:28;;;;;;;16.00;8.30;;;11.10;99.90;;;;;;5030343;28;20064;-82
2022/01/02 04:51:54;;;;;;;21.20;9.45;;;11.10;99.90;;;;;;5030323;28;20040;-83
2022/01/02 04:54:21;;;;;;;15.35;8.23;;;11.10;99.90;;;;;;5030775;28;20403;-82
2022/01/02 04:56:46;;;;;;;18.95;9.32;;;11.10;99.90;;;;;;5011364;28;20403;-82
2022/01/02 04:59:12;;;;;;;16.83;8.95;;;11.10;99.90;;;;;;5027129;28;20124;-83
2022/01/02 05:01:37;;;;;;;22.45;8.88;;;11.10;99.90;;;;;;5029972;28;20049;-82
2022/01/02 05:04:03;;;;;;;19.10;8.95;;;11.10;99.90;;;;;;5013894;28;20124;-83
2022/01/02 05:06:29;;;;;;;25.13;9.20;;;11.10;99.90;;;;;;5030449;28;20073;-83
2022/01/02 05:08:54;;;;;;;21.52;9.38;;;11.10;99.90;;;;;;5029994;28;20037;-83
2022/01/02 05:11:20;;;;;;;16.40;8.63;;;11.10;99.90;;;;;;5030380;28;20072;-83
2022/01/02 05:13:45;;;;;;;21.73;9.40;;;11.10;99.90;;;;;;5030773;28;20026;-83
2022/01/02 05:16:11;;;;;;;23.08;8.88;;;11.10;99.90;;;;;;5029507;28;20045;-83
2022/01/02 05:18:36;;;;;;;17.83;9.23;;;11.10;99.90;;;;;;5029996;28;20056;-82
2022/01/02 05:21:02;;;;;;;21.73;8.60;;;11.10;99.90;;;;;;5029587;28;20043;-82
2022/01/02 05:23:29;;;;;;;22.95;9.32;;;11.10;99.90;;;;;;5029373;28;20178;-83
2022/01/02 05:25:58;;;;;;;21.83;9.35;;;11.10;99.90;;;;;;5013394;28;20522;-83
2022/01/02 05:28:23;;;;;;;25.08;8.38;;;11.10;99.90;;;;;;5029330;28;20044;-83
2022/01/02 05:30:49;;;;;;;21.67;8.57;;;11.10;99.90;;;;;;5030028;28;20515;-83
2022/01/02 05:33:15;;;;;;;24.02;8.40;;;11.10;99.90;;;;;;5029509;28;20119;-82
2022/01/02 05:35:41;;;;;;;22.88;8.63;;;11.10;99.90;;;;;;5028162;28;20037;-82
2022/01/02 05:38:06;;;;;;;18.75;7.35;;;11.10;99.90;;;;;;5029671;28;20037;-83
2022/01/02 05:40:33;;;;;;;19.75;7.32;;;11.10;99.90;;;;;;5029654;28;20148;-83
2022/01/02 05:43:03;;;;;;;19.48;8.07;;;11.20;99.90;;;;;;5029895;28;20107;-83
2022/01/02 05:45:29;;;;;;;19.88;7.57;;;11.20;99.90;;;;;;4977618;28;1035093;-83
2022/01/02 05:47:55;;;;;;;21.45;7.80;;;11.20;99.90;;;;;;5029978;28;20045;-83
2022/01/02 05:50:21;;;;;;;21.50;7.55;;;11.20;99.90;;;;;;5030267;28;20128;-83
2022/01/02 05:52:46;;;;;;;17.05;7.10;;;11.20;99.90;;;;;;5030179;28;20526;-83
2022/01/02 05:55:12;;;;;;;15.68;6.60;;;11.30;99.90;;;;;;5030170;28;20033;-83
2022/01/02 05:57:38;;;;;;;22.20;7.32;;;11.30;99.90;;;;;;5013922;28;20040;-83
2022/01/02 06:00:07;;;;;;;21.10;7.13;;;11.30;99.90;;;;;;5030087;28;20037;-82
2022/01/02 06:02:32;;;;;;;16.30;6.10;;;11.30;99.90;;;;;;5029490;28;20054;-82
2022/01/02 06:04:58;;;;;;;16.80;6.80;;;11.30;99.90;;;;;;5013877;28;20045;-82
2022/01/02 06:07:24;;;;;;;18.25;6.53;;;11.30;99.90;;;;;;5029729;28;20038;-83
2022/01/02 06:09:50;;;;;;;17.17;6.43;;;11.30;99.90;;;;;;5028697;28;20124;-83
2022/01/02 06:12:15;;;;;;;17.38;6.60;;;11.30;99.90;;;;;;5029977;28;20036;-83
2022/01/02 06:14:41;;;;;;;15.80;6.47;;;11.40;99.90;;;;;;5030700;28;20145;-83
2022/01/02 06:17:07;;;;;;;17.75;6.32;;;11.30;99.90;;;;;;5029825;28;20057;-84
2022/01/02 06:19:33;;;;;;;15.25;6.55;;;11.40;99.90;;;;;;5029862;28;20049;-83
2022/01/02 06:21:58;;;;;;;18.83;6.55;;;11.30;99.90;;;;;;5030510;28;20041;-83
2022/01/02 06:24:24;;;;;;;16.17;6.18;;;11.30;99.90;;;;;;5013032;28;20076;-84
2022/01/02 06:26:49;;;;;;;15.68;6.07;;;11.40;99.90;;;;;;5029562;28;20392;-83
2022/01/02 06:29:15;;;;;;;18.13;6.20;;;11.30;99.90;;;;;;5029760;28;20040;-83
2022/01/02 06:31:40;;;;;;;17.60;5.97;;;11.40;99.90;;;;;;5026930;28;20045;-83
2022/01/02 06:34:06;;;;;;;22.25;6.72;;;11.40;99.90;;;;;;5029359;28;20037;-83
2022/01/02 06:36:31;;;;;;;13.50;6.28;;;11.40;99.90;;;;;;5012948;28;20783;-83
2022/01/02 06:38:57;;;;;;;16.30;6.20;;;11.40;99.90;;;;;;5030113;28;20045;-83
2022/01/02 06:41:22;;;;;;;15.45;6.05;;;11.40;99.90;;;;;;5029116;28;20115;-83
2022/01/02 06:43:52;;;;;;;15.38;5.72;;;11.40;99.90;;;;;;5029921;28;20521;-84
2022/01/02 06:46:18;;;;;;;15.23;6.07;;;11.40;99.90;;;;;;5029423;28;20049;-83
2022/01/02 06:48:44;;;;;;;14.48;5.63;;;11.40;99.90;;;;;;5028957;28;20038;-83
2022/01/02 06:51:10;;;;;;;16.83;5.82;;;11.40;99.90;;;;;;5031461;28;20048;-83
2022/01/02 06:53:35;;;;;;;13.02;4.80;;;11.40;99.90;;;;;;5033353;28;20033;-83
2022/01/02 06:56:01;;;;;;;16.83;4.90;;;11.50;99.90;;;;;;5016919;28;20038;-83
2022/01/02 06:58:26;;;;;;;12.73;4.68;;;11.50;99.90;;;;;;5033131;28;20080;-83
2022/01/02 07:00:52;;;;;;;13.15;5.07;;;11.60;99.90;;;;;;5032809;28;20384;-82
2022/01/02 07:03:17;;;;;;;10.63;4.50;;;11.50;99.90;;;;;;5032188;28;20487;-83
2022/01/02 07:05:43;;;;;;;11.85;4.68;;;11.60;99.90;;;;;;5032494;28;20076;-82
2022/01/02 07:08:09;;;;;;;12.57;4.75;;;11.60;99.90;;;;;;5031758;28;20551;-83
2022/01/02 07:10:34;;;;;;;9.35;4.43;;;11.70;99.90;;;;;;5034243;28;20033;-83
2022/01/02 07:13:00;;;;;;;15.48;4.68;;;11.70;99.90;;;;;;5032643;28;20045;-83
2022/01/02 07:15:25;;;;;;;13.65;3.90;;;11.70;99.90;;;;;;5014994;28;20025;-83
2022/01/02 07:17:51;;;;;;;9.25;3.95;;;11.70;99.90;;;;;;5032018;28;20091;-83
2022/01/02 07:20:17;;;;;;;9.63;4.18;;;11.70;99.90;;;;;;5032114;28;20490;-84
2022/01/02 07:22:42;;;;;;;12.57;4.32;;;11.80;99.90;;;;;;5032142;28;20041;-83
2022/01/02 07:25:10;;;;;;;9.77;3.90;;;11.70;99.90;;;;;;5015705;28;20046;-84
2022/01/02 07:27:36;;;;;;;10.60;3.22;;;11.80;99.90;;;;;;5032364;28;20045;-82
2022/01/02 07:30:02;;;;;;;11.88;4.05;;;11.80;99.90;;;;;;5015360;28;20404;-83
2022/01/02 07:32:28;;;;;;;12.10;3.72;;;11.80;99.90;;;;;;5032120;28;20037;-82
2022/01/02 07:34:53;;;;;;;8.48;3.80;;;11.80;99.90;;;;;;5030689;28;20040;-83
2022/01/02 07:37:19;;;;;;;11.00;3.67;;;11.80;99.90;;;;;;5025623;28;20491;-83
2022/01/02 07:39:44;;;;;;;10.23;3.55;;;11.80;99.90;;;;;;5028081;28;20065;-83
2022/01/02 07:42:10;;;;;;;10.68;3.55;;;11.80;99.90;;;;;;5029414;28;20053;-84
2022/01/02 07:44:37;;;;;;;11.75;4.07;;;11.80;99.90;;;;;;5030221;28;20041;-84
2022/01/02 07:47:04;;;;;;;9.18;3.70;;;11.80;99.90;;;;;;5025972;28;20091;-85
2022/01/02 07:49:30;;;;;;;10.40;4.40;;;11.80;99.90;;;;;;5012022;28;20108;-84
2022/01/02 07:51:55;;;;;;;8.00;3.88;;;11.80;99.90;;;;;;5030566;28;20041;-84
2022/01/02 07:54:21;;;;;;;10.88;4.00;;;11.90;99.90;;;;;;5031416;28;20038;-85
2022/01/02 07:56:46;;;;;;;11.23;4.05;;;11.80;99.90;;;;;;5012421;28;20034;-84
2022/01/02 07:59:12;;;;;;;12.27;4.15;;;11.80;99.90;;;;;;5030158;28;20528;-84
2022/01/02 08:01:38;;;;;;;12.55;4.45;;;11.80;99.90;;;;;;5019324;28;20096;-83
2022/01/02 08:04:03;;;;;;;8.35;4.20;;;11.80;99.90;;;;;;5021637;28;20050;-84
2022/01/02 08:06:29;;;;;;;11.32;3.65;;;11.80;99.90;;;;;;5026204;28;20038;-83
2022/01/02 08:08:54;;;;;;;10.75;4.65;;;11.80;99.90;;;;;;5026755;28;20535;-84
2022/01/02 08:11:20;;;;;;;11.50;4.70;;;11.80;99.90;;;;;;5028841;28;20165;-85
2022/01/02 08:13:46;;;;;;;11.48;4.60;;;11.80;99.90;;;;;;5014194;28;20698;-83
2022/01/02 08:16:12;;;;;;;13.15;4.75;;;11.70;99.90;;;;;;5027596;28;20041;-84
2022/01/02 08:18:39;;;;;;;12.38;5.38;;;11.70;99.90;;;;;;5028392;28;20045;-83
2022/01/02 08:21:05;;;;;;;12.85;4.20;;;11.70;99.90;;;;;;5031389;28;20513;-83
2022/01/02 08:23:31;;;;;;;10.45;4.80;;;11.60;99.90;;;;;;5029602;28;20498;-84
2022/01/02 08:25:56;;;;;;;14.73;5.50;;;11.60;99.90;;;;;;5030803;28;20052;-84
2022/01/02 08:28:22;;;;;;;9.23;4.75;;;11.60;99.90;;;;;;5029758;28;20044;-83
2022/01/02 08:30:48;;;;;;;11.20;5.18;;;11.60;99.90;;;;;;5030707;28;20086;-83
2022/01/02 08:33:17;;;;;;;13.40;5.22;;;11.50;99.90;;;;;;5031100;28;20033;-83
2022/01/02 08:35:44;;;;;;;14.57;4.80;;;11.50;99.90;;;;;;5029771;28;20109;-83
2022/01/02 08:38:10;;;;;;;13.32;5.38;;;11.50;99.90;;;;;;5029888;28;20513;-83
2022/01/02 08:40:37;;;;;;;9.88;5.45;;;11.40;99.90;;;;;;5029872;28;20040;-83
2022/01/02 08:43:03;;;;;;;16.77;5.45;;;11.40;99.90;;;;;;5030305;28;20052;-83
2022/01/02 08:45:29;;;;;;;11.00;5.38;;;11.40;99.90;;;;;;5029024;28;20041;-83
2022/01/02 08:47:55;;;;;;;11.50;5.53;;;11.40;99.90;;;;;;5013498;28;20056;-84
2022/01/02 08:50:20;;;;;;;10.07;5.32;;;11.40;99.90;;;;;;5029946;28;20469;-84
2022/01/02 08:52:46;;;;;;;10.90;5.72;;;11.40;99.90;;;;;;5031136;28;20034;-84
2022/01/02 08:55:12;;;;;;;18.13;5.75;;;11.40;99.90;;;;;;5029588;28;20030;-85
2022/01/02 08:57:37;;;;;;;11.20;5.78;;;11.30;99.90;;;;;;5012936;28;20137;-83
2022/01/02 09:00:05;;;;;;;12.77;5.88;;;11.30;99.90;;;;;;5029102;28;20777;-84
2022/01/02 09:02:31;;;;;;;9.95;5.32;;;11.30;99.90;;;;;;5029532;28;20075;-84
2022/01/02 09:04:56;;;;;;;12.45;6.22;;;11.20;99.90;;;;;;5030048;28;20069;-85
2022/01/02 09:07:22;;;;;;;12.38;6.57;;;11.20;99.90;;;;;;5030981;28;20459;-84
2022/01/02 09:09:47;;;;;;;12.05;6.30;;;11.20;99.90;;;;;;5030407;28;20072;-84
2022/01/02 09:12:14;;;;;;;10.20;6.07;;;11.20;99.90;;;;;;5030811;28;20042;-84
2022/01/02 09:14:41;;;;;;;12.10;6.40;;;11.20;99.90;;;;;;5013701;28;20056;-86
2022/01/02 09:17:06;;;;;;;11.30;6.38;;;11.20;99.90;;;;;;5030629;28;20412;-83
2022/01/02 09:19:32;;;;;;;12.73;6.22;;;11.20;99.90;;;;;;5030718;28;20045;-84
2022/01/02 09:21:57;;;;;;;12.70;6.80;;;11.20;99.90;;;;;;5030529;28;20045;-84
2022/01/02 09:24:23;;;;;;;14.27;6.07;;;11.20;99.90;;;;;;5030304;28;20048;-84
2022/01/02 09:26:49;;;;;;;10.52;6.32;;;11.20;99.90;;;;;;5030710;28;20037;-85
2022/01/02 09:29:14;;;;;;;10.65;6.60;;;11.20;99.90;;;;;;5029560;28;20049;-85
2022/01/02 09:31:40;;;;;;;12.27;6.43;;;11.20;99.90;;;;;;5030129;28;20406;-83
2022/01/02 09:34:06;;;;;;;14.95;7.07;;;11.20;99.90;;;;;;5027327;28;20036;-85
2022/01/02 09:36:32;;;;;;;11.85;6.63;;;11.20;99.90;;;;;;5029737;28;20491;-84
2022/01/02 09:38:57;;;;;;;9.80;6.30;;;11.20;99.90;;;;;;5029863;28;20042;-84
2022/01/02 09:41:23;;;;;;;11.55;6.53;;;11.10;99.90;;;;;;5010618;28;20463;-85
2022/01/02 09:43:49;;;;;;;13.30;6.25;;;11.10;99.90;;;;;;5004272;28;20121;-85
2022/01/02 09:46:20;;;;;;;12.95;6.70;;;11.10;99.90;;;;;;5022676;28;20584;-85
2022/01/02 09:48:48;;;;;;;14.05;6.75;;;11.10;99.90;;;;;;5030552;28;20487;-84
2022/01/02 09:51:15;;;;;;;10.30;6.55;;;11.10;99.90;;;;;;5014284;28;20038;-85
2022/01/02 09:53:41;;;;;;;9.25;5.65;;;11.10;99.90;;;;;;5030229;28;20037;-85
2022/01/02 09:56:06;;;;;;;11.68;6.20;;;11.10;99.90;;;;;;5027232;28;20483;-84
2022/01/02 09:58:34;;;;;;;11.63;6.38;;;11.10;99.90;;;;;;5030559;28;20455;-86
2022/01/02 10:01:00;;;;;;;13.43;6.70;;;11.10;99.90;;;;;;5030074;28;20038;-85
2022/01/02 10:03:25;;;;;;;10.75;6.38;;;11.10;99.90;;;;;;5030198;28;20040;-86
2022/01/02 10:05:59;;;;;;;14.40;6.47;;;11.10;99.90;;;;;;5027126;28;20477;-85
2022/01/02 10:08:28;;;;;;;11.48;6.63;;;11.10;99.90;;;;;;5026030;28;20038;-85
2022/01/02 10:11:21;;;;;;;13.60;6.63;;;11.10;99.90;;;;;;5026889;28;20026;-85
2022/01/02 10:13:48;;;;;;;12.00;6.72;;;11.10;99.90;;;;;;5028308;28;20117;-85
2022/01/02 10:16:24;;;;;;;17.25;7.40;;;11.20;99.90;;;;;;5027958;28;20049;-83
2022/01/02 10:18:52;;;;;;;13.10;7.60;;;11.20;99.90;;;;;;5028601;28;20289;-83
2022/01/02 10:21:38;;;;;;;18.63;8.35;;;11.20;99.90;;;;;;5028324;28;20049;-84
2022/01/02 10:24:10;;;;;;;13.05;7.95;;;11.20;99.90;;;;;;5017158;28;20120;-84
2022/01/02 10:26:36;;;;;;;14.35;7.97;;;11.30;99.90;;;;;;5033687;28;20045;-84
2022/01/02 10:29:20;;;;;;;12.63;8.30;;;11.30;99.90;;;;;;5033974;28;20529;-84
2022/01/02 10:31:45;;;;;;;14.05;8.02;;;11.30;99.90;;;;;;5033615;28;20049;-84
2022/01/02 10:34:11;;;;;;;14.18;8.32;;;11.30;99.90;;;;;;5017122;28;20506;-85
2022/01/02 10:36:40;;;;;;;15.55;7.97;;;11.40;99.90;;;;;;5033515;28;20041;-84
2022/01/02 10:39:12;;;;;;;12.98;7.35;;;11.40;99.90;;;;;;5033585;28;20041;-84
2022/01/02 10:41:41;;;;;;;13.77;7.65;;;11.40;99.90;;;;;;5033035;28;20123;-85
2022/01/02 10:44:32;;;;;;;14.98;8.13;;;11.40;99.90;;;;;;5013013;28;20080;-84
2022/01/02 10:47:24;;;;;;;15.07;8.02;;;11.40;99.90;;;;;;5033035;28;20041;-84
2022/01/02 10:50:04;;;;;;;15.00;7.50;;;11.40;99.90;;;;;;5030769;28;20042;-85
2022/01/02 10:52:36;;;;;;;14.88;7.47;;;11.40;99.90;;;;;;5023106;28;20033;-84
2022/01/02 10:55:15;;;;;;;14.07;7.30;;;11.50;99.90;;;;;;5003770;28;20034;-86
2022/01/02 10:57:42;;;;;;;16.67;6.93;;;11.40;99.90;;;;;;5032311;28;20049;-84
2022/01/02 11:00:10;;;;;;;13.18;6.80;;;11.50;99.90;;;;;;5033726;28;20458;-85
2022/01/02 11:02:37;;;;;;;15.32;6.75;;;11.50;99.90;;;;;;5033267;28;20041;-85
2022/01/02 11:05:05;;;;;;;13.23;6.60;;;11.50;99.90;;;;;;5033193;28;20050;-84
2022/01/02 11:07:46;;;;;;;11.07;6.05;;;11.50;99.90;;;;;;5033213;28;20447;-84
2022/01/02 11:10:14;;;;;;;15.10;5.88;;;11.50;99.90;;;;;;5028936;28;20037;-85
2022/01/02 11:12:41;;;;;;;11.93;5.45;;;11.60;99.90;;;;;;5010822;28;20042;-84
2022/01/02 11:15:09;;;;;;;15.50;5.47;;;11.60;99.90;;;;;;5028320;28;20037;-85
2022/01/02 11:17:35;;;;;;;12.40;5.65;;;11.60;99.90;;;;;;5033082;28;20038;-85
2022/01/02 11:20:06;;;;;;;13.70;5.35;;;11.70;99.90;;;;;;5014273;28;20755;-84
2022/01/02 11:22:44;;;;;;;14.52;5.60;;;11.70;99.90;;;;;;5030512;28;20037;-83
2022/01/02 11:25:10;;;;;;;15.73;5.45;;;11.80;99.90;;;;;;5031427;28;20041;-84
2022/01/02 11:27:49;;;;;;;18.98;5.60;;;11.80;99.90;;;;;;5031674;28;20060;-83
2022/01/02 11:30:30;;;;;;;8.98;4.82;;;11.80;99.90;;;;;;5031231;28;20522;-84
2022/01/02 11:33:01;;;;;;;13.85;5.40;;;11.80;99.90;;;;;;5014682;28;20041;-85
2022/01/02 11:35:33;;;;;;;10.90;5.00;;;11.80;99.90;;;;;;5032383;28;20045;-86
2022/01/02 11:38:02;;;;;;;12.25;5.57;;;11.80;99.90;;;;;;5013913;28;20037;-85
2022/01/02 11:40:48;;;;;;;12.20;5.47;;;11.70;99.90;;;;;;5032032;28;20057;-83
2022/01/02 11:43:36;;;;;;;9.00;4.57;;;11.70;99.90;;;;;;5014659;28;20038;-85
2022/01/02 11:46:25;;;;;;;13.23;5.15;;;11.70;99.90;;;;;;5028415;28;20534;-85
2022/01/02 11:49:15;;;;;;;12.50;5.30;;;11.70;99.90;;;;;;5028636;28;20042;-85
2022/01/02 11:51:57;;;;;;;16.63;5.60;;;11.60;99.90;;;;;;5026781;28;20092;-85
2022/01/02 11:54:41;;;;;;;12.32;4.50;;;11.60;99.90;;;;;;5026085;28;20095;-87
2022/01/02 11:57:15;;;;;;;12.23;5.28;;;11.70;99.90;;;;;;5025148;28;20441;-83
2022/01/02 11:59:47;;;;;;;11.55;5.03;;;11.60;99.90;;;;;;5028727;28;20050;-83
2022/01/02 12:02:19;;;;;;;12.98;4.82;;;11.60;99.90;;;;;;5010905;28;20034;-84
2022/01/02 12:05:11;;;;;;;13.80;5.35;;;11.70;99.90;;;;;;5010987;28;20380;-85
2022/01/02 12:07:50;;;;;;;15.13;5.03;;;11.60;99.90;;;;;;5011419;28;20180;-84
2022/01/02 12:10:15;;;;;;;13.70;4.43;;;11.60;99.90;;;;;;5011874;28;20128;-84
2022/01/02 12:12:57;;;;;;;17.38;3.63;;;11.60;99.90;;;;;;5027357;28;20160;-86
2022/01/02 12:15:32;;;;;;;18.20;4.18;;;11.60;99.90;;;;;;5011998;28;20049;-84
2022/01/02 12:18:06;;;;;;;11.52;3.88;;;11.60;99.90;;;;;;5028956;28;20779;-84
2022/01/02 12:20:50;;;;;;;13.52;4.20;;;11.60;99.90;;;;;;5011149;28;20377;-84
2022/01/02 12:23:34;;;;;;;18.95;4.38;;;11.50;99.90;;;;;;5027980;28;20033;-84
2022/01/02 12:26:09;;;;;;;11.38;3.60;;;11.60;99.90;;;;;;5010378;28;20041;-82
2022/01/02 12:28:43;;;;;;;16.23;4.22;;;11.50;99.90;;;;;;5027573;28;20030;-84
2022/01/02 12:31:11;;;;;;;12.30;3.75;;;11.50;99.90;;;;;;5029075;28;20083;-84
2022/01/02 12:33:37;;;;;;;15.07;3.47;;;11.50;99.90;;;;;;5023039;28;20041;-83
2022/01/02 12:36:13;;;;;;;17.55;4.63;;;11.50;99.90;;;;;;5030050;28;20064;-85
2022/01/02 12:38:58;;;;;;;16.77;3.83;;;11.50;99.90;;;;;;5008737;28;20430;-83
2022/01/02 12:41:30;;;;;;;11.38;3.22;;;11.50;99.90;;;;;;5029982;28;20037;-85
2022/01/02 12:43:59;;;;;;;13.73;2.72;;;11.50;99.90;;;;;;5011574;28;20056;-84
2022/01/02 12:46:43;;;;;;;16.00;3.08;;;11.60;99.90;;;;;;5026817;28;20037;-84
2022/01/02 12:49:18;;;;;;;12.60;3.30;;;11.60;99.90;;;;;;5028322;28;20036;-84